createdAt,value
2022-08-03T00:00:40.289Z,19.80
2022-08-03T00:03:08.970Z,19.70
2022-08-03T00:05:38.695Z,19.70
2022-08-03T00:08:07.472Z,19.60
2022-08-03T00:10:35.914Z,19.60
2022-08-03T00:13:04.182Z,19.50
2022-08-03T00:15:32.646Z,19.50
2022-08-03T00:18:01.277Z,19.50
2022-08-03T00:20:29.510Z,19.40
2022-08-03T00:22:59.279Z,19.40
2022-08-03T00:25:28.336Z,19.40
2022-08-03T00:27:56.705Z,19.40
2022-08-03T00:30:26.885Z,19.40
2022-08-03T00:33:02.665Z,19.40
2022-08-03T00:35:36.758Z,19.30
2022-08-03T00:39:10.531Z,19.30
2022-08-03T00:41:40.313Z,19.30
2022-08-03T00:44:08.585Z,19.20
2022-08-03T00:47:05.235Z,19.10
2022-08-03T00:49:33.792Z,19.10
2022-08-03T00:52:09.547Z,19.10
2022-08-03T00:54:46.870Z,19.00
2022-08-03T00:57:16.611Z,19.00
2022-08-03T00:59:44.806Z,19.00
2022-08-03T01:02:14.513Z,19.00
2022-08-03T01:04:43.140Z,18.90
2022-08-03T01:07:42.643Z,18.90
2022-08-03T01:10:20.157Z,18.90
2022-08-03T01:12:58.922Z,18.90
2022-08-03T01:15:33.303Z,18.80
2022-08-03T01:18:09.238Z,18.80
2022-08-03T01:20:41.912Z,18.80
2022-08-03T01:23:36.904Z,18.70
2022-08-03T01:26:22.863Z,18.70
2022-08-03T01:29:05.371Z,18.70
2022-08-03T01:32:59.978Z,18.60
2022-08-03T01:34:35.683Z,18.60
2022-08-03T01:37:08.204Z,18.50
2022-08-03T01:39:39.171Z,18.50
2022-08-03T01:42:10.195Z,18.50
2022-08-03T01:44:42.792Z,18.50
2022-08-03T01:47:14.067Z,18.40
2022-08-03T01:49:46.414Z,18.30
2022-08-03T01:52:18.916Z,18.30
2022-08-03T01:54:52.158Z,18.20
2022-08-03T01:57:22.259Z,18.30
2022-08-03T01:59:52.014Z,18.20
2022-08-03T02:02:34.064Z,18.20
2022-08-03T02:05:10.735Z,18.10
2022-08-03T02:07:44.479Z,18.10
2022-08-03T02:10:17.121Z,18.10
2022-08-03T02:13:06.909Z,18.00
2022-08-03T02:15:38.061Z,18.00
2022-08-03T02:18:10.810Z,18.00
2022-08-03T02:20:40.788Z,18.00
2022-08-03T02:23:47.697Z,17.90
2022-08-03T02:26:21.266Z,17.90
2022-08-03T02:28:53.097Z,17.80
2022-08-03T02:31:28.376Z,17.80
2022-08-03T02:34:03.295Z,17.70
2022-08-03T02:36:40.508Z,17.70
2022-08-03T02:43:07.847Z,17.60
2022-08-03T02:45:42.593Z,17.50
2022-08-03T02:48:17.207Z,17.50
2022-08-03T02:50:54.837Z,17.50
2022-08-03T02:53:26.337Z,17.40
2022-08-03T02:55:56.485Z,17.40
2022-08-03T02:58:25.925Z,17.40
2022-08-03T03:00:56.280Z,17.40
2022-08-03T03:03:25.605Z,17.40
2022-08-03T03:05:59.898Z,17.30
2022-08-03T03:08:29.362Z,17.30
2022-08-03T03:11:00.658Z,17.30
2022-08-03T03:13:31.488Z,17.30
2022-08-03T03:16:05.082Z,17.30
2022-08-03T03:18:35.397Z,17.20
2022-08-03T03:21:06.327Z,17.20
2022-08-03T03:23:38.311Z,17.20
2022-08-03T03:26:07.465Z,17.10
2022-08-03T03:28:38.131Z,17.10
2022-08-03T03:31:07.415Z,17.10
2022-08-03T03:33:36.352Z,17.10
2022-08-03T03:36:41.753Z,17.10
2022-08-03T03:39:15.628Z,17.10
2022-08-03T03:41:45.133Z,17.10
2022-08-03T03:44:53.704Z,17.10
2022-08-03T03:47:32.945Z,17.10
2022-08-03T03:50:02.950Z,17.10
2022-08-03T03:52:32.509Z,17.10
2022-08-03T03:55:02.112Z,17.10
2022-08-03T03:57:30.338Z,17.10
2022-08-03T03:59:58.897Z,17.10
2022-08-03T04:02:27.482Z,17.10
2022-08-03T04:05:14.530Z,17.10
2022-08-03T04:08:06.953Z,17.10
2022-08-03T04:10:57.649Z,17.10
2022-08-03T04:13:28.863Z,17.10
2022-08-03T04:15:58.783Z,17.10
2022-08-03T04:18:30.247Z,17.10
2022-08-03T04:21:01.712Z,17.10
2022-08-03T04:23:32.065Z,17.10
2022-08-03T04:26:03.587Z,17.10
2022-08-03T04:28:33.633Z,17.10
2022-08-03T04:31:03.970Z,17.10
2022-08-03T04:33:52.963Z,17.10
2022-08-03T04:36:54.967Z,17.10
2022-08-03T04:39:27.480Z,17.10
2022-08-03T04:42:17.121Z,17.20
2022-08-03T04:44:47.622Z,17.20
2022-08-03T04:47:16.794Z,17.20
2022-08-03T04:49:45.620Z,17.20
2022-08-03T04:52:14.590Z,17.30
2022-08-03T04:54:48.680Z,17.30
2022-08-03T04:57:22.357Z,17.30
2022-08-03T05:00:01.722Z,17.30
2022-08-03T05:02:31.869Z,17.40
2022-08-03T05:05:00.577Z,17.50
2022-08-03T05:07:35.751Z,17.50
2022-08-03T05:10:14.777Z,17.60
2022-08-03T05:12:46.730Z,17.70
2022-08-03T05:15:16.111Z,17.80
2022-08-03T05:17:44.669Z,17.90
2022-08-03T05:20:38.751Z,18.00
2022-08-03T05:23:06.963Z,18.20
2022-08-03T05:25:35.487Z,18.40
2022-08-03T05:28:06.171Z,18.50
2022-08-03T05:30:34.770Z,18.70
2022-08-03T05:33:04.498Z,18.90
2022-08-03T05:36:00.955Z,19.10
2022-08-03T05:38:28.132Z,19.30
2022-08-03T05:41:21.060Z,19.50
2022-08-03T05:43:49.607Z,19.70
2022-08-03T05:46:18.332Z,20.00
2022-08-03T05:48:46.508Z,20.10
2022-08-03T05:51:14.838Z,20.20
2022-08-03T05:53:44.049Z,20.40
2022-08-03T05:56:14.412Z,20.50
2022-08-03T05:58:44.528Z,20.60
2022-08-03T06:01:14.616Z,20.70
2022-08-03T06:03:42.916Z,20.90
2022-08-03T06:06:11.902Z,21.10
2022-08-03T06:08:40.293Z,21.20
2022-08-03T06:11:08.987Z,21.40
2022-08-03T06:13:37.791Z,21.50
2022-08-03T06:16:06.848Z,21.60
2022-08-03T06:18:37.166Z,21.60
2022-08-03T06:21:13.985Z,21.80
2022-08-03T06:23:52.778Z,22.00
2022-08-03T06:26:22.032Z,22.10
2022-08-03T06:28:52.440Z,22.20
2022-08-03T06:31:22.944Z,22.30
2022-08-03T06:34:32.656Z,22.30
2022-08-03T06:36:44.393Z,22.50
2022-08-03T06:39:20.562Z,22.60
2022-08-03T06:41:51.922Z,22.60
2022-08-03T06:44:20.177Z,22.90
2022-08-03T06:46:48.995Z,22.90
2022-08-03T06:49:21.141Z,23.00
2022-08-03T06:52:03.661Z,23.10
2022-08-03T06:54:37.565Z,23.10
2022-08-03T06:57:08.295Z,23.30
2022-08-03T07:00:07.495Z,23.40
2022-08-03T07:02:25.020Z,23.50
2022-08-03T07:04:58.224Z,23.50
2022-08-03T07:07:26.809Z,23.60
2022-08-03T07:09:57.746Z,23.80
2022-08-03T07:12:28.102Z,24.00
2022-08-03T07:15:00.825Z,24.30
2022-08-03T07:17:30.355Z,24.50
2022-08-03T07:20:00.828Z,24.80
2022-08-03T07:22:29.443Z,25.10
2022-08-03T07:24:58.144Z,25.20
2022-08-03T07:27:28.792Z,25.50
2022-08-03T07:29:57.694Z,25.70
2022-08-03T07:32:26.802Z,25.90
2022-08-03T07:35:00.152Z,25.90
2022-08-03T07:37:32.082Z,25.80
2022-08-03T07:40:01.125Z,25.70
2022-08-03T07:42:31.748Z,25.70
2022-08-03T07:45:04.119Z,25.80
2022-08-03T07:47:35.389Z,26.00
2022-08-03T07:50:05.466Z,26.10
2022-08-03T07:52:51.548Z,26.20
2022-08-03T07:55:21.115Z,26.40
2022-08-03T07:58:04.784Z,26.50
2022-08-03T08:00:33.188Z,26.70
2022-08-03T08:03:01.767Z,27.10
2022-08-03T08:05:30.209Z,27.40
2022-08-03T08:08:00.391Z,27.90
2022-08-03T08:10:29.950Z,28.20
2022-08-03T08:12:58.272Z,28.30
2022-08-03T08:15:27.081Z,28.10
2022-08-03T08:17:57.264Z,28.60
2022-08-03T08:20:31.292Z,28.60
2022-08-03T08:23:22.307Z,28.60
2022-08-03T08:25:54.641Z,28.80
2022-08-03T08:28:32.916Z,28.70
2022-08-03T08:31:02.256Z,28.60
2022-08-03T08:33:48.280Z,28.90
2022-08-03T08:36:19.436Z,29.30
2022-08-03T08:38:49.493Z,29.90
2022-08-03T08:41:18.260Z,29.80
2022-08-03T08:43:47.111Z,29.90
2022-08-03T08:46:22.928Z,29.90
2022-08-03T08:48:54.162Z,30.20
2022-08-03T08:51:54.800Z,30.80
2022-08-03T08:54:27.057Z,30.40
2022-08-03T08:57:00.101Z,30.00
2022-08-03T08:59:48.002Z,30.30
2022-08-03T09:02:17.193Z,30.80
2022-08-03T09:04:49.018Z,31.60
2022-08-03T09:07:29.061Z,31.60
2022-08-03T09:10:10.336Z,31.90
2022-08-03T09:12:44.132Z,32.40
2022-08-03T09:15:24.462Z,32.40
2022-08-03T09:17:54.165Z,32.30
2022-08-03T09:20:23.661Z,32.80
2022-08-03T09:22:57.848Z,33.10
2022-08-03T09:25:35.809Z,33.30
2022-08-03T09:28:10.385Z,32.90
2022-08-03T09:30:39.886Z,32.70
2022-08-03T09:33:09.629Z,33.50
2022-08-03T09:35:59.039Z,34.00
2022-08-03T09:38:27.652Z,34.00
2022-08-03T09:41:00.999Z,34.70
2022-08-03T09:43:29.623Z,35.10
2022-08-03T09:46:04.523Z,34.90
2022-08-03T09:48:34.930Z,34.80
2022-08-03T09:51:21.150Z,34.90
2022-08-03T09:54:00.285Z,34.90
2022-08-03T09:56:45.350Z,35.50
2022-08-03T09:59:15.456Z,35.10
2022-08-03T10:01:43.792Z,35.00
2022-08-03T10:04:17.146Z,35.10
2022-08-03T10:06:46.360Z,35.30
2022-08-03T10:09:16.305Z,35.20
2022-08-03T10:11:47.572Z,35.60
2022-08-03T10:14:19.993Z,35.20
2022-08-03T10:16:49.870Z,35.20
2022-08-03T10:19:19.408Z,35.70
2022-08-03T10:21:51.418Z,35.70
2022-08-03T10:24:27.239Z,35.40
2022-08-03T10:27:03.648Z,35.20
2022-08-03T10:29:35.976Z,35.50
2022-08-03T10:32:08.977Z,36.10
2022-08-03T10:34:44.489Z,36.40
2022-08-03T10:37:15.654Z,36.80
2022-08-03T10:39:54.267Z,36.60
2022-08-03T10:42:31.695Z,36.40
2022-08-03T10:45:06.862Z,36.30
2022-08-03T10:47:36.141Z,36.40
2022-08-03T10:50:05.890Z,36.20
2022-08-03T10:52:38.187Z,36.10
2022-08-03T10:55:48.481Z,36.00
2022-08-03T10:58:53.451Z,36.30
2022-08-03T11:02:00.042Z,36.40
2022-08-03T11:04:30.699Z,36.10
2022-08-03T11:07:20.040Z,36.10
2022-08-03T11:09:49.883Z,35.50
2022-08-03T11:12:30.608Z,35.20
2022-08-03T11:15:04.127Z,34.80
2022-08-03T11:17:46.704Z,35.00
2022-08-03T11:20:45.892Z,35.20
2022-08-03T11:23:15.162Z,35.60
2022-08-03T11:26:11.790Z,35.80
2022-08-03T11:28:41.333Z,35.70
2022-08-03T11:31:50.881Z,35.40
2022-08-03T11:34:20.255Z,35.40
2022-08-03T11:37:22.509Z,35.50
2022-08-03T11:39:54.765Z,35.80
2022-08-03T11:42:48.129Z,35.80
2022-08-03T11:45:18.073Z,35.90
2022-08-03T11:47:51.175Z,35.50
2022-08-03T11:50:21.489Z,35.30
2022-08-03T11:52:50.843Z,35.20
2022-08-03T11:55:22.152Z,34.80
2022-08-03T11:59:16.385Z,34.90
2022-08-03T12:00:40.607Z,35.00
2022-08-03T12:03:12.360Z,34.60
2022-08-03T12:05:51.777Z,34.30
2022-08-03T12:08:32.306Z,34.10
2022-08-03T12:11:03.085Z,33.90
2022-08-03T12:14:45.383Z,33.70
2022-08-03T12:16:30.721Z,33.60
2022-08-03T12:19:02.564Z,33.70
2022-08-03T12:21:31.556Z,34.20
2022-08-03T12:24:00.935Z,33.90
2022-08-03T12:26:30.554Z,33.90
2022-08-03T12:28:58.856Z,33.90
2022-08-03T12:31:27.343Z,34.10
2022-08-03T12:34:03.355Z,34.10
2022-08-03T12:36:33.465Z,33.80
2022-08-03T12:39:06.770Z,33.40
2022-08-03T12:41:36.506Z,33.50
2022-08-03T12:44:05.969Z,33.40
2022-08-03T12:46:36.480Z,33.30
2022-08-03T12:49:09.070Z,33.00
2022-08-03T12:51:39.343Z,33.10
2022-08-03T12:54:07.934Z,33.40
2022-08-03T12:56:36.880Z,33.50
2022-08-03T12:59:32.189Z,33.40
2022-08-03T13:02:04.520Z,33.40
2022-08-03T13:04:38.988Z,33.30
2022-08-03T13:07:14.125Z,33.50
2022-08-03T13:09:44.507Z,33.60
2022-08-03T13:12:14.486Z,33.50
2022-08-03T13:14:42.821Z,33.20
2022-08-03T13:17:11.472Z,33.40
2022-08-03T13:19:41.908Z,33.60
2022-08-03T13:22:15.248Z,33.40
2022-08-03T13:24:44.612Z,33.10
2022-08-03T13:28:04.862Z,33.20
2022-08-03T13:30:03.962Z,33.60
2022-08-03T13:32:32.722Z,33.40
2022-08-03T13:35:03.081Z,33.60
2022-08-03T13:37:32.398Z,33.80
2022-08-03T13:40:05.620Z,33.80
2022-08-03T13:42:36.321Z,33.90
2022-08-03T13:45:06.456Z,34.10
2022-08-03T13:47:34.914Z,34.30
2022-08-03T13:50:04.902Z,34.40
2022-08-03T13:52:35.018Z,34.40
2022-08-03T13:55:05.197Z,34.30
2022-08-03T13:58:04.544Z,34.20
2022-08-03T14:00:27.946Z,34.20
2022-08-03T14:03:17.373Z,34.10
2022-08-03T14:05:48.377Z,34.30
2022-08-03T14:08:17.127Z,34.40
2022-08-03T14:10:46.633Z,34.40
2022-08-03T14:13:17.679Z,34.70
2022-08-03T14:15:50.890Z,35.00
2022-08-03T14:18:27.768Z,35.00
2022-08-03T14:21:06.604Z,34.80
2022-08-03T14:23:37.781Z,34.60
2022-08-03T14:26:09.848Z,34.60
2022-08-03T14:28:38.313Z,34.60
2022-08-03T14:31:08.440Z,34.50
2022-08-03T14:33:55.237Z,34.70
2022-08-03T14:36:25.406Z,35.00
2022-08-03T14:38:55.329Z,35.00
2022-08-03T14:41:26.595Z,35.00
2022-08-03T14:44:01.563Z,35.10
2022-08-03T14:46:31.211Z,35.20
2022-08-03T14:50:24.347Z,35.10
2022-08-03T14:51:53.483Z,35.20
2022-08-03T14:54:24.526Z,35.30
2022-08-03T14:56:53.115Z,35.60
2022-08-03T14:59:21.273Z,35.70
2022-08-03T15:02:04.129Z,35.80
2022-08-03T15:04:36.146Z,35.90
2022-08-03T15:07:06.195Z,36.00
2022-08-03T15:09:34.526Z,35.80
2022-08-03T15:12:03.223Z,36.00
2022-08-03T15:14:38.650Z,36.00
2022-08-03T15:17:07.449Z,36.10
2022-08-03T15:20:00.818Z,35.90
2022-08-03T15:22:34.610Z,35.90
2022-08-03T15:25:03.950Z,36.00
2022-08-03T15:28:02.754Z,35.90
2022-08-03T15:30:33.999Z,35.70
2022-08-03T15:33:02.900Z,35.90
2022-08-03T15:35:31.485Z,36.10
2022-08-03T15:38:02.495Z,36.20
2022-08-03T15:40:32.676Z,36.20
2022-08-03T15:43:01.984Z,36.20
2022-08-03T15:45:35.423Z,35.70
2022-08-03T15:48:05.718Z,35.50
2022-08-03T15:50:34.328Z,35.50
2022-08-03T15:53:04.510Z,35.70
2022-08-03T15:55:33.116Z,35.50
2022-08-03T15:59:10.430Z,35.10
2022-08-03T16:00:49.650Z,34.80
2022-08-03T16:03:17.756Z,34.70
2022-08-03T16:05:46.092Z,34.50
2022-08-03T16:08:15.851Z,34.50
2022-08-03T16:10:44.164Z,34.60
2022-08-03T16:13:12.534Z,34.80
2022-08-03T16:15:41.235Z,35.00
2022-08-03T16:18:09.720Z,35.10
2022-08-03T16:20:37.957Z,35.20
2022-08-03T16:23:12.677Z,35.20
2022-08-03T16:25:49.354Z,35.10
2022-08-03T16:28:19.159Z,35.30
2022-08-03T16:30:48.165Z,35.40
2022-08-03T16:33:17.933Z,35.40
2022-08-03T16:35:47.030Z,35.50
2022-08-03T16:38:19.093Z,35.60
2022-08-03T16:40:52.215Z,35.80
2022-08-03T16:43:22.103Z,35.80
2022-08-03T16:45:50.841Z,35.90
2022-08-03T16:48:20.020Z,35.80
2022-08-03T16:50:48.528Z,35.70
2022-08-03T16:53:33.079Z,35.60
2022-08-03T16:56:09.543Z,35.50
2022-08-03T16:58:42.425Z,35.30
2022-08-03T17:01:21.457Z,35.20
2022-08-03T17:04:01.870Z,35.00
2022-08-03T17:06:34.269Z,35.10
2022-08-03T17:09:04.233Z,35.30
2022-08-03T17:11:46.704Z,35.40
2022-08-03T17:14:17.035Z,35.40
2022-08-03T17:16:52.607Z,35.40
2022-08-03T17:19:24.094Z,35.40
2022-08-03T17:21:58.366Z,35.50
2022-08-03T17:24:32.231Z,35.20
2022-08-03T17:27:03.830Z,35.20
2022-08-03T17:29:44.943Z,35.10
2022-08-03T17:32:21.756Z,35.10
2022-08-03T17:34:51.630Z,35.00
2022-08-03T17:37:50.715Z,35.00
2022-08-03T17:40:17.700Z,35.00
2022-08-03T17:42:50.495Z,35.00
2022-08-03T17:45:20.338Z,35.10
2022-08-03T17:47:57.397Z,35.00
2022-08-03T17:50:33.923Z,34.80
2022-08-03T17:53:07.793Z,34.70
2022-08-03T17:55:57.041Z,34.50
2022-08-03T17:58:41.309Z,34.30
2022-08-03T18:02:02.141Z,34.10
2022-08-03T18:04:30.370Z,34.00
2022-08-03T18:07:11.897Z,33.90
2022-08-03T18:10:04.391Z,33.60
2022-08-03T18:12:45.109Z,33.20
2022-08-03T18:15:21.247Z,32.90
2022-08-03T18:18:00.881Z,32.70
2022-08-03T18:20:41.214Z,32.40
2022-08-03T18:23:11.614Z,32.10
2022-08-03T18:25:58.231Z,32.00
2022-08-03T18:28:28.749Z,32.00
2022-08-03T18:30:59.051Z,31.90
2022-08-03T18:34:17.504Z,31.80
2022-08-03T18:36:29.680Z,31.70
2022-08-03T18:39:01.621Z,31.50
2022-08-03T18:41:33.530Z,31.30
2022-08-03T18:44:08.814Z,31.20
2022-08-03T18:47:07.101Z,31.00
2022-08-03T18:49:45.498Z,30.90
2022-08-03T18:52:18.532Z,30.70
2022-08-03T18:55:02.558Z,30.60
2022-08-03T18:57:46.467Z,30.50
2022-08-03T19:00:17.501Z,30.30
2022-08-03T19:03:02.417Z,30.10
2022-08-03T19:05:52.936Z,29.90
2022-08-03T19:08:38.396Z,29.70
2022-08-03T19:11:11.249Z,29.50
2022-08-03T19:13:50.293Z,29.30
2022-08-03T19:16:28.998Z,29.10
2022-08-03T19:19:01.753Z,29.00
2022-08-03T19:21:31.023Z,28.80
2022-08-03T19:24:05.549Z,28.70
2022-08-03T19:26:37.167Z,28.50
2022-08-03T19:29:10.813Z,28.40
2022-08-03T19:31:57.978Z,28.30
2022-08-03T19:34:32.842Z,28.20
2022-08-03T19:37:01.679Z,28.10
2022-08-03T19:39:31.735Z,27.90
2022-08-03T19:42:18.473Z,27.90
2022-08-03T19:44:52.737Z,27.70
2022-08-03T19:47:29.225Z,27.60
2022-08-03T19:50:05.836Z,27.60
2022-08-03T19:52:42.420Z,27.50
2022-08-03T19:55:12.682Z,27.40
2022-08-03T19:57:45.634Z,27.30
2022-08-03T20:00:18.582Z,27.20
2022-08-03T20:02:47.136Z,27.10
2022-08-03T20:05:21.017Z,27.00
2022-08-03T20:07:51.906Z,26.90
2022-08-03T20:10:20.995Z,26.80
2022-08-03T20:12:49.943Z,26.80
2022-08-03T20:15:22.585Z,26.70
2022-08-03T20:18:00.206Z,26.60
2022-08-03T20:20:34.943Z,26.50
2022-08-03T20:23:07.687Z,26.50
2022-08-03T20:25:57.091Z,26.40
2022-08-03T20:28:30.200Z,26.30
2022-08-03T20:30:59.750Z,26.20
2022-08-03T20:33:46.221Z,26.10
2022-08-03T20:36:19.014Z,26.00
2022-08-03T20:38:48.266Z,26.00
2022-08-03T20:41:17.229Z,25.90
2022-08-03T20:48:23.973Z,25.70
2022-08-03T20:50:54.353Z,25.60
2022-08-03T20:53:57.279Z,25.50
2022-08-03T20:56:13.166Z,25.40
2022-08-03T20:58:50.521Z,25.30
2022-08-03T21:04:11.093Z,25.20
2022-08-03T21:06:53.078Z,25.20
2022-08-03T21:09:33.603Z,25.10
2022-08-03T21:12:17.851Z,25.10
2022-08-03T21:13:07.896Z,25.30
2022-08-03T21:14:53.767Z,25.00
2022-08-03T21:17:39.902Z,24.90
2022-08-03T21:20:11.650Z,24.90
2022-08-03T21:22:44.522Z,24.80
2022-08-03T21:25:16.876Z,24.70
2022-08-03T21:27:45.299Z,24.70
2022-08-03T21:30:15.382Z,24.60
2022-08-03T21:32:46.354Z,24.60
2022-08-03T21:35:15.051Z,24.60
2022-08-03T21:37:44.717Z,24.50
2022-08-03T21:40:17.661Z,24.40
2022-08-03T21:42:46.802Z,24.40
2022-08-03T21:45:17.705Z,24.30
2022-08-03T21:47:48.554Z,24.30
2022-08-03T21:50:17.940Z,24.30
2022-08-03T21:52:48.136Z,24.20
2022-08-03T21:55:18.512Z,24.20
2022-08-03T21:57:52.515Z,24.10
2022-08-03T22:00:23.272Z,24.10
2022-08-03T22:02:55.257Z,24.10
2022-08-03T22:05:42.926Z,24.00
2022-08-03T22:08:14.438Z,24.00
2022-08-03T22:10:48.046Z,24.00
2022-08-03T22:13:43.219Z,23.90
2022-08-03T22:16:07.924Z,23.80
2022-08-03T22:18:38.106Z,23.80
2022-08-03T22:21:07.833Z,23.70
2022-08-03T22:28:16.259Z,23.60
2022-08-03T22:30:44.629Z,23.50
2022-08-03T22:33:15.596Z,23.40
2022-08-03T22:35:48.316Z,23.40
2022-08-03T22:38:17.910Z,23.30
2022-08-03T22:40:48.907Z,23.20
2022-08-03T22:43:18.759Z,23.20
2022-08-03T22:46:10.628Z,23.20
2022-08-03T22:48:41.134Z,23.20
2022-08-03T22:51:10.630Z,23.10
2022-08-03T22:53:40.935Z,23.10
2022-08-03T22:56:09.450Z,23.10
2022-08-03T22:58:39.287Z,23.10
2022-08-03T23:01:10.006Z,23.00
2022-08-03T23:04:17.688Z,22.90
2022-08-03T23:07:18.047Z,22.80
2022-08-03T23:09:48.375Z,22.70
2022-08-03T23:12:19.388Z,22.70
2022-08-03T23:14:54.243Z,22.60
2022-08-03T23:17:24.466Z,22.60
2022-08-03T23:19:54.568Z,22.60
2022-08-03T23:22:30.388Z,22.60
2022-08-03T23:25:03.630Z,22.50
2022-08-03T23:27:33.276Z,22.50
2022-08-03T23:30:03.789Z,22.40
2022-08-03T23:32:32.410Z,22.30
2022-08-03T23:35:19.727Z,22.20
2022-08-03T23:38:04.094Z,22.20
2022-08-03T23:40:38.484Z,22.10
2022-08-03T23:43:07.369Z,22.10
2022-08-03T23:45:46.305Z,22.00
2022-08-03T23:48:14.701Z,22.00
2022-08-03T23:50:47.258Z,21.90
2022-08-03T23:53:21.048Z,21.90
2022-08-03T23:56:05.591Z,21.90
2022-08-03T23:59:05.792Z,21.80
